sensor_id;sensor_type;location;lat;lon;timestamp;P1;durP1;ratioP1;P2;durP2;ratioP2
17251;SDS011;8742;51.716;8.790;2023-06-14T00:02:00;8.60;;;2.53;;
17251;SDS011;8742;51.716;8.790;2023-06-14T00:04:27;6.10;;;2.87;;
17251;SDS011;8742;51.716;8.790;2023-06-14T00:06:55;6.47;;;2.80;;
17251;SDS011;8742;51.716;8.790;2023-06-14T00:09:22;6.57;;;2.50;;
17251;SDS011;8742;51.716;8.790;2023-06-14T00:11:49;9.80;;;2.60;;
17251;SDS011;8742;51.716;8.790;2023-06-14T00:14:17;8.07;;;2.37;;
17251;SDS011;8742;51.716;8.790;2023-06-14T00:16:44;3.80;;;2.90;;
17251;SDS011;8742;51.716;8.790;2023-06-14T00:19:12;2.83;;;2.53;;
17251;SDS011;8742;51.716;8.790;2023-06-14T00:21:41;4.90;;;3.00;;
17251;SDS011;8742;51.716;8.790;2023-06-14T00:24:08;7.90;;;2.70;;
17251;SDS011;8742;51.716;8.790;2023-06-14T00:26:35;8.37;;;2.60;;
17251;SDS011;8742;51.716;8.790;2023-06-14T00:29:02;5.00;;;2.30;;
17251;SDS011;8742;51.716;8.790;2023-06-14T00:31:30;2.63;;;2.27;;
17251;SDS011;8742;51.716;8.790;2023-06-14T00:33:57;6.07;;;2.47;;
17251;SDS011;8742;51.716;8.790;2023-06-14T00:36:24;5.73;;;2.30;;
17251;SDS011;8742;51.716;8.790;2023-06-14T00:38:51;7.20;;;2.60;;
17251;SDS011;8742;51.716;8.790;2023-06-14T00:41:18;11.57;;;3.00;;
17251;SDS011;8742;51.716;8.790;2023-06-14T00:43:44;5.47;;;2.50;;
17251;SDS011;8742;51.716;8.790;2023-06-14T00:46:11;3.60;;;2.30;;
17251;SDS011;8742;51.716;8.790;2023-06-14T00:48:39;4.63;;;2.70;;
17251;SDS011;8742;51.716;8.790;2023-06-14T00:51:07;4.07;;;2.60;;
17251;SDS011;8742;51.716;8.790;2023-06-14T00:53:33;6.80;;;2.77;;
17251;SDS011;8742;51.716;8.790;2023-06-14T00:56:01;3.27;;;2.53;;
17251;SDS011;8742;51.716;8.790;2023-06-14T00:58:28;11.63;;;2.67;;
17251;SDS011;8742;51.716;8.790;2023-06-14T01:00:55;4.20;;;2.63;;
17251;SDS011;8742;51.716;8.790;2023-06-14T01:03:23;3.97;;;2.40;;
17251;SDS011;8742;51.716;8.790;2023-06-14T01:05:53;12.60;;;2.57;;
17251;SDS011;8742;51.716;8.790;2023-06-14T01:08:28;3.10;;;2.60;;
17251;SDS011;8742;51.716;8.790;2023-06-14T01:11:05;2.80;;;2.50;;
17251;SDS011;8742;51.716;8.790;2023-06-14T01:13:38;4.07;;;2.53;;
17251;SDS011;8742;51.716;8.790;2023-06-14T01:16:06;11.43;;;2.50;;
17251;SDS011;8742;51.716;8.790;2023-06-14T01:18:34;12.20;;;2.90;;
17251;SDS011;8742;51.716;8.790;2023-06-14T01:21:03;5.23;;;2.60;;
17251;SDS011;8742;51.716;8.790;2023-06-14T01:23:32;5.00;;;2.90;;
17251;SDS011;8742;51.716;8.790;2023-06-14T01:25:59;2.83;;;2.60;;
17251;SDS011;8742;51.716;8.790;2023-06-14T01:28:28;5.03;;;2.53;;
17251;SDS011;8742;51.716;8.790;2023-06-14T01:30:59;3.40;;;2.37;;
17251;SDS011;8742;51.716;8.790;2023-06-14T01:33:29;4.80;;;2.60;;
17251;SDS011;8742;51.716;8.790;2023-06-14T01:35:58;2.93;;;2.43;;
17251;SDS011;8742;51.716;8.790;2023-06-14T01:38:26;10.20;;;2.53;;
17251;SDS011;8742;51.716;8.790;2023-06-14T01:40:55;2.83;;;2.00;;
17251;SDS011;8742;51.716;8.790;2023-06-14T01:43:24;5.87;;;2.40;;
17251;SDS011;8742;51.716;8.790;2023-06-14T01:45:52;4.43;;;2.40;;
17251;SDS011;8742;51.716;8.790;2023-06-14T01:48:21;4.33;;;2.50;;
17251;SDS011;8742;51.716;8.790;2023-06-14T01:50:48;5.63;;;2.70;;
17251;SDS011;8742;51.716;8.790;2023-06-14T01:53:15;5.27;;;2.70;;
17251;SDS011;8742;51.716;8.790;2023-06-14T01:55:42;5.43;;;2.37;;
17251;SDS011;8742;51.716;8.790;2023-06-14T01:58:14;4.20;;;2.40;;
17251;SDS011;8742;51.716;8.790;2023-06-14T02:00:42;8.47;;;2.30;;
17251;SDS011;8742;51.716;8.790;2023-06-14T02:03:10;6.67;;;2.40;;
17251;SDS011;8742;51.716;8.790;2023-06-14T02:05:38;5.03;;;2.57;;
17251;SDS011;8742;51.716;8.790;2023-06-14T02:08:05;5.13;;;2.33;;
17251;SDS011;8742;51.716;8.790;2023-06-14T02:10:32;4.47;;;2.33;;
17251;SDS011;8742;51.716;8.790;2023-06-14T02:12:59;7.67;;;2.50;;
17251;SDS011;8742;51.716;8.790;2023-06-14T02:15:27;5.03;;;2.40;;
17251;SDS011;8742;51.716;8.790;2023-06-14T02:17:58;6.47;;;2.60;;
17251;SDS011;8742;51.716;8.790;2023-06-14T02:20:26;4.30;;;2.00;;
17251;SDS011;8742;51.716;8.790;2023-06-14T02:22:53;4.73;;;2.67;;
17251;SDS011;8742;51.716;8.790;2023-06-14T02:25:20;2.63;;;2.30;;
17251;SDS011;8742;51.716;8.790;2023-06-14T02:27:47;3.43;;;2.40;;
17251;SDS011;8742;51.716;8.790;2023-06-14T02:30:14;4.30;;;2.60;;
17251;SDS011;8742;51.716;8.790;2023-06-14T02:32:43;5.53;;;2.50;;
17251;SDS011;8742;51.716;8.790;2023-06-14T02:35:09;3.63;;;2.33;;
17251;SDS011;8742;51.716;8.790;2023-06-14T02:37:36;5.10;;;2.50;;
17251;SDS011;8742;51.716;8.790;2023-06-14T02:40:04;5.97;;;3.13;;
17251;SDS011;8742;51.716;8.790;2023-06-14T02:42:32;11.57;;;2.57;;
17251;SDS011;8742;51.716;8.790;2023-06-14T02:44:59;5.67;;;2.50;;
17251;SDS011;8742;51.716;8.790;2023-06-14T02:47:27;4.47;;;2.50;;
17251;SDS011;8742;51.716;8.790;2023-06-14T02:49:55;4.60;;;2.70;;
17251;SDS011;8742;51.716;8.790;2023-06-14T02:52:22;5.97;;;2.70;;
17251;SDS011;8742;51.716;8.790;2023-06-14T02:54:50;3.03;;;2.50;;
17251;SDS011;8742;51.716;8.790;2023-06-14T02:57:17;3.97;;;2.23;;
17251;SDS011;8742;51.716;8.790;2023-06-14T02:59:43;5.13;;;2.73;;
17251;SDS011;8742;51.716;8.790;2023-06-14T03:02:10;2.73;;;2.47;;
17251;SDS011;8742;51.716;8.790;2023-06-14T03:04:37;5.50;;;2.40;;
17251;SDS011;8742;51.716;8.790;2023-06-14T03:07:06;4.33;;;2.30;;
17251;SDS011;8742;51.716;8.790;2023-06-14T03:09:34;5.60;;;2.37;;
17251;SDS011;8742;51.716;8.790;2023-06-14T03:12:02;4.03;;;2.60;;
17251;SDS011;8742;51.716;8.790;2023-06-14T03:14:29;4.07;;;2.57;;
17251;SDS011;8742;51.716;8.790;2023-06-14T03:16:56;3.77;;;2.63;;
17251;SDS011;8742;51.716;8.790;2023-06-14T03:19:23;2.47;;;2.27;;
17251;SDS011;8742;51.716;8.790;2023-06-14T03:21:51;3.67;;;2.50;;
17251;SDS011;8742;51.716;8.790;2023-06-14T03:24:20;4.53;;;2.63;;
17251;SDS011;8742;51.716;8.790;2023-06-14T03:26:46;6.27;;;2.80;;
17251;SDS011;8742;51.716;8.790;2023-06-14T03:29:13;7.50;;;2.60;;
17251;SDS011;8742;51.716;8.790;2023-06-14T03:31:56;6.00;;;2.40;;
17251;SDS011;8742;51.716;8.790;2023-06-14T03:34:24;3.47;;;2.37;;
17251;SDS011;8742;51.716;8.790;2023-06-14T03:36:51;8.17;;;2.87;;
17251;SDS011;8742;51.716;8.790;2023-06-14T03:39:19;5.63;;;2.73;;
17251;SDS011;8742;51.716;8.790;2023-06-14T03:41:46;5.00;;;2.60;;
17251;SDS011;8742;51.716;8.790;2023-06-14T03:44:14;4.60;;;2.70;;
17251;SDS011;8742;51.716;8.790;2023-06-14T03:46:42;6.00;;;2.73;;
17251;SDS011;8742;51.716;8.790;2023-06-14T03:49:10;3.73;;;2.47;;
17251;SDS011;8742;51.716;8.790;2023-06-14T03:51:37;5.20;;;2.97;;
17251;SDS011;8742;51.716;8.790;2023-06-14T03:54:04;8.43;;;2.90;;
17251;SDS011;8742;51.716;8.790;2023-06-14T03:56:33;3.17;;;2.70;;
17251;SDS011;8742;51.716;8.790;2023-06-14T03:59:00;5.03;;;2.43;;
17251;SDS011;8742;51.716;8.790;2023-06-14T04:01:27;2.47;;;2.27;;
17251;SDS011;8742;51.716;8.790;2023-06-14T04:03:55;4.77;;;2.63;;
17251;SDS011;8742;51.716;8.790;2023-06-14T04:06:22;4.73;;;2.70;;
17251;SDS011;8742;51.716;8.790;2023-06-14T04:08:56;4.03;;;2.63;;
17251;SDS011;8742;51.716;8.790;2023-06-14T04:11:29;9.03;;;3.07;;
17251;SDS011;8742;51.716;8.790;2023-06-14T04:13:58;5.90;;;2.70;;
17251;SDS011;8742;51.716;8.790;2023-06-14T04:16:25;3.67;;;2.30;;
17251;SDS011;8742;51.716;8.790;2023-06-14T04:18:52;5.40;;;2.50;;
17251;SDS011;8742;51.716;8.790;2023-06-14T04:21:19;4.37;;;2.50;;
17251;SDS011;8742;51.716;8.790;2023-06-14T04:23:48;4.70;;;2.60;;
17251;SDS011;8742;51.716;8.790;2023-06-14T04:26:17;8.03;;;2.80;;
17251;SDS011;8742;51.716;8.790;2023-06-14T04:28:44;2.90;;;2.57;;
17251;SDS011;8742;51.716;8.790;2023-06-14T04:31:13;5.57;;;2.97;;
17251;SDS011;8742;51.716;8.790;2023-06-14T04:33:41;4.10;;;2.10;;
17251;SDS011;8742;51.716;8.790;2023-06-14T04:36:10;3.57;;;2.47;;
17251;SDS011;8742;51.716;8.790;2023-06-14T04:38:37;4.77;;;2.73;;
17251;SDS011;8742;51.716;8.790;2023-06-14T04:41:04;5.33;;;2.50;;
17251;SDS011;8742;51.716;8.790;2023-06-14T04:43:31;10.37;;;2.43;;
17251;SDS011;8742;51.716;8.790;2023-06-14T04:46:03;7.07;;;2.33;;
17251;SDS011;8742;51.716;8.790;2023-06-14T04:48:36;6.93;;;2.43;;
17251;SDS011;8742;51.716;8.790;2023-06-14T04:51:04;4.90;;;2.40;;
17251;SDS011;8742;51.716;8.790;2023-06-14T04:53:31;3.57;;;2.27;;
17251;SDS011;8742;51.716;8.790;2023-06-14T04:55:59;4.10;;;2.60;;
17251;SDS011;8742;51.716;8.790;2023-06-14T04:58:26;3.57;;;2.50;;
17251;SDS011;8742;51.716;8.790;2023-06-14T05:00:53;3.23;;;2.43;;
17251;SDS011;8742;51.716;8.790;2023-06-14T05:03:21;5.37;;;2.60;;
17251;SDS011;8742;51.716;8.790;2023-06-14T05:05:50;7.57;;;2.70;;
17251;SDS011;8742;51.716;8.790;2023-06-14T05:08:18;2.33;;;2.10;;
17251;SDS011;8742;51.716;8.790;2023-06-14T05:10:45;8.80;;;2.63;;
17251;SDS011;8742;51.716;8.790;2023-06-14T05:13:12;6.90;;;2.10;;
17251;SDS011;8742;51.716;8.790;2023-06-14T05:15:38;5.83;;;2.37;;
17251;SDS011;8742;51.716;8.790;2023-06-14T05:18:05;6.33;;;2.90;;
17251;SDS011;8742;51.716;8.790;2023-06-14T05:20:34;5.63;;;2.57;;
17251;SDS011;8742;51.716;8.790;2023-06-14T05:23:03;2.50;;;2.03;;
17251;SDS011;8742;51.716;8.790;2023-06-14T05:25:30;9.77;;;2.57;;
17251;SDS011;8742;51.716;8.790;2023-06-14T05:27:57;5.30;;;2.77;;
17251;SDS011;8742;51.716;8.790;2023-06-14T05:30:23;4.80;;;2.23;;
17251;SDS011;8742;51.716;8.790;2023-06-14T05:32:51;2.30;;;2.10;;
17251;SDS011;8742;51.716;8.790;2023-06-14T05:35:18;6.67;;;2.00;;
17251;SDS011;8742;51.716;8.790;2023-06-14T05:37:47;4.63;;;2.10;;
17251;SDS011;8742;51.716;8.790;2023-06-14T05:40:15;7.60;;;2.40;;
17251;SDS011;8742;51.716;8.790;2023-06-14T05:42:42;2.03;;;1.83;;
17251;SDS011;8742;51.716;8.790;2023-06-14T05:45:09;2.40;;;1.80;;
17251;SDS011;8742;51.716;8.790;2023-06-14T05:47:36;3.00;;;2.17;;
17251;SDS011;8742;51.716;8.790;2023-06-14T05:50:03;3.27;;;1.60;;
17251;SDS011;8742;51.716;8.790;2023-06-14T05:52:31;3.47;;;1.87;;
17251;SDS011;8742;51.716;8.790;2023-06-14T05:54:58;5.47;;;1.57;;
17251;SDS011;8742;51.716;8.790;2023-06-14T05:57:27;6.87;;;1.80;;
17251;SDS011;8742;51.716;8.790;2023-06-14T05:59:53;2.47;;;1.40;;
17251;SDS011;8742;51.716;8.790;2023-06-14T06:02:20;2.53;;;1.80;;
17251;SDS011;8742;51.716;8.790;2023-06-14T06:04:47;3.53;;;1.90;;
17251;SDS011;8742;51.716;8.790;2023-06-14T06:07:14;2.83;;;1.50;;
17251;SDS011;8742;51.716;8.790;2023-06-14T06:09:41;3.20;;;1.90;;
17251;SDS011;8742;51.716;8.790;2023-06-14T06:12:08;3.70;;;2.10;;
17251;SDS011;8742;51.716;8.790;2023-06-14T06:14:36;2.60;;;1.80;;
17251;SDS011;8742;51.716;8.790;2023-06-14T06:17:03;5.20;;;1.90;;
17251;SDS011;8742;51.716;8.790;2023-06-14T06:19:31;2.63;;;1.70;;
17251;SDS011;8742;51.716;8.790;2023-06-14T06:21:58;6.23;;;2.17;;
17251;SDS011;8742;51.716;8.790;2023-06-14T06:24:25;1.87;;;1.77;;
17251;SDS011;8742;51.716;8.790;2023-06-14T06:26:51;2.07;;;1.90;;
17251;SDS011;8742;51.716;8.790;2023-06-14T06:29:19;3.73;;;2.23;;
17251;SDS011;8742;51.716;8.790;2023-06-14T06:31:47;6.10;;;2.03;;
17251;SDS011;8742;51.716;8.790;2023-06-14T06:34:14;5.07;;;2.30;;
17251;SDS011;8742;51.716;8.790;2023-06-14T06:36:41;3.20;;;2.10;;
17251;SDS011;8742;51.716;8.790;2023-06-14T06:39:08;2.83;;;2.07;;
17251;SDS011;8742;51.716;8.790;2023-06-14T06:41:35;4.53;;;2.17;;
17251;SDS011;8742;51.716;8.790;2023-06-14T06:44:04;6.23;;;1.63;;
17251;SDS011;8742;51.716;8.790;2023-06-14T06:46:31;4.53;;;1.93;;
17251;SDS011;8742;51.716;8.790;2023-06-14T06:48:59;5.40;;;2.07;;
17251;SDS011;8742;51.716;8.790;2023-06-14T06:51:26;8.90;;;1.93;;
17251;SDS011;8742;51.716;8.790;2023-06-14T06:53:53;4.60;;;1.80;;
17251;SDS011;8742;51.716;8.790;2023-06-14T06:56:20;5.33;;;1.90;;
17251;SDS011;8742;51.716;8.790;2023-06-14T06:58:48;2.43;;;1.80;;
17251;SDS011;8742;51.716;8.790;2023-06-14T07:01:15;6.90;;;2.00;;
17251;SDS011;8742;51.716;8.790;2023-06-14T07:03:42;8.47;;;1.80;;
17251;SDS011;8742;51.716;8.790;2023-06-14T07:06:10;5.40;;;1.83;;
17251;SDS011;8742;51.716;8.790;2023-06-14T07:08:37;4.27;;;1.60;;
17251;SDS011;8742;51.716;8.790;2023-06-14T07:11:04;3.50;;;1.90;;
17251;SDS011;8742;51.716;8.790;2023-06-14T07:13:31;1.60;;;1.47;;
17251;SDS011;8742;51.716;8.790;2023-06-14T07:15:58;1.73;;;1.60;;
17251;SDS011;8742;51.716;8.790;2023-06-14T07:18:26;5.70;;;1.30;;
17251;SDS011;8742;51.716;8.790;2023-06-14T07:20:53;1.50;;;1.40;;
17251;SDS011;8742;51.716;8.790;2023-06-14T07:23:22;4.10;;;1.50;;
17251;SDS011;8742;51.716;8.790;2023-06-14T07:25:49;1.90;;;1.70;;
17251;SDS011;8742;51.716;8.790;2023-06-14T07:28:16;2.50;;;1.80;;
17251;SDS011;8742;51.716;8.790;2023-06-14T07:30:43;6.00;;;1.70;;
17251;SDS011;8742;51.716;8.790;2023-06-14T07:33:10;4.50;;;1.80;;
17251;SDS011;8742;51.716;8.790;2023-06-14T07:35:37;3.63;;;1.70;;
17251;SDS011;8742;51.716;8.790;2023-06-14T07:38:04;3.20;;;1.87;;
17251;SDS011;8742;51.716;8.790;2023-06-14T07:40:32;3.10;;;1.90;;
17251;SDS011;8742;51.716;8.790;2023-06-14T07:42:59;7.17;;;1.87;;
17251;SDS011;8742;51.716;8.790;2023-06-14T07:45:27;2.80;;;1.90;;
17251;SDS011;8742;51.716;8.790;2023-06-14T07:47:54;2.53;;;1.87;;
17251;SDS011;8742;51.716;8.790;2023-06-14T07:50:21;2.67;;;2.13;;
17251;SDS011;8742;51.716;8.790;2023-06-14T07:52:48;2.83;;;2.07;;
17251;SDS011;8742;51.716;8.790;2023-06-14T07:55:15;2.70;;;2.40;;
17251;SDS011;8742;51.716;8.790;2023-06-14T07:57:43;3.53;;;1.90;;
17251;SDS011;8742;51.716;8.790;2023-06-14T08:00:11;5.40;;;2.00;;
17251;SDS011;8742;51.716;8.790;2023-06-14T08:02:40;2.57;;;1.97;;
17251;SDS011;8742;51.716;8.790;2023-06-14T08:05:08;3.77;;;1.87;;
17251;SDS011;8742;51.716;8.790;2023-06-14T08:07:36;4.25;;;1.90;;
17251;SDS011;8742;51.716;8.790;2023-06-14T08:10:03;2.80;;;2.10;;
17251;SDS011;8742;51.716;8.790;2023-06-14T08:12:31;3.20;;;2.28;;
17251;SDS011;8742;51.716;8.790;2023-06-14T08:14:59;2.47;;;2.28;;
17251;SDS011;8742;51.716;8.790;2023-06-14T08:17:26;4.35;;;2.08;;
17251;SDS011;8742;51.716;8.790;2023-06-14T08:19:53;3.60;;;2.08;;
17251;SDS011;8742;51.716;8.790;2023-06-14T08:22:22;5.95;;;2.30;;
17251;SDS011;8742;51.716;8.790;2023-06-14T08:24:49;1.90;;;1.80;;
17251;SDS011;8742;51.716;8.790;2023-06-14T08:27:19;3.95;;;2.30;;
17251;SDS011;8742;51.716;8.790;2023-06-14T08:29:46;8.82;;;2.40;;
17251;SDS011;8742;51.716;8.790;2023-06-14T08:32:14;4.70;;;2.28;;
17251;SDS011;8742;51.716;8.790;2023-06-14T08:34:41;3.05;;;2.45;;
17251;SDS011;8742;51.716;8.790;2023-06-14T08:37:07;4.65;;;2.40;;
17251;SDS011;8742;51.716;8.790;2023-06-14T08:39:34;2.95;;;2.33;;
17251;SDS011;8742;51.716;8.790;2023-06-14T08:42:01;3.58;;;2.30;;
17251;SDS011;8742;51.716;8.790;2023-06-14T08:44:29;3.03;;;2.25;;
17251;SDS011;8742;51.716;8.790;2023-06-14T08:46:56;3.03;;;2.50;;
17251;SDS011;8742;51.716;8.790;2023-06-14T08:49:24;3.83;;;2.40;;
17251;SDS011;8742;51.716;8.790;2023-06-14T08:51:53;2.85;;;2.58;;
17251;SDS011;8742;51.716;8.790;2023-06-14T08:54:25;6.03;;;2.22;;
17251;SDS011;8742;51.716;8.790;2023-06-14T08:56:55;3.90;;;2.45;;
17251;SDS011;8742;51.716;8.790;2023-06-14T08:59:23;3.80;;;2.30;;
17251;SDS011;8742;51.716;8.790;2023-06-14T09:01:51;2.92;;;2.15;;
17251;SDS011;8742;51.716;8.790;2023-06-14T09:04:19;4.57;;;2.30;;
17251;SDS011;8742;51.716;8.790;2023-06-14T09:06:48;3.72;;;2.30;;
17251;SDS011;8742;51.716;8.790;2023-06-14T09:09:18;2.90;;;2.33;;
17251;SDS011;8742;51.716;8.790;2023-06-14T09:11:45;5.95;;;2.75;;
17251;SDS011;8742;51.716;8.790;2023-06-14T09:14:13;3.58;;;2.45;;
17251;SDS011;8742;51.716;8.790;2023-06-14T09:16:40;4.20;;;2.40;;
17251;SDS011;8742;51.716;8.790;2023-06-14T09:19:07;6.28;;;2.55;;
17251;SDS011;8742;51.716;8.790;2023-06-14T09:21:34;3.22;;;2.90;;
17251;SDS011;8742;51.716;8.790;2023-06-14T09:24:04;2.88;;;2.50;;
17251;SDS011;8742;51.716;8.790;2023-06-14T09:26:31;4.85;;;2.47;;
17251;SDS011;8742;51.716;8.790;2023-06-14T09:28:58;2.67;;;2.25;;
17251;SDS011;8742;51.716;8.790;2023-06-14T09:31:25;2.90;;;2.20;;
17251;SDS011;8742;51.716;8.790;2023-06-14T09:33:56;4.78;;;2.33;;
17251;SDS011;8742;51.716;8.790;2023-06-14T09:36:23;3.28;;;2.53;;
17251;SDS011;8742;51.716;8.790;2023-06-14T09:38:51;5.45;;;2.30;;
17251;SDS011;8742;51.716;8.790;2023-06-14T09:41:20;5.63;;;2.70;;
17251;SDS011;8742;51.716;8.790;2023-06-14T09:43:56;4.00;;;2.42;;
17251;SDS011;8742;51.716;8.790;2023-06-14T09:46:26;3.92;;;2.10;;
17251;SDS011;8742;51.716;8.790;2023-06-14T09:48:53;5.85;;;2.55;;
17251;SDS011;8742;51.716;8.790;2023-06-14T09:51:20;3.13;;;2.60;;
17251;SDS011;8742;51.716;8.790;2023-06-14T09:53:49;2.50;;;2.30;;
17251;SDS011;8742;51.716;8.790;2023-06-14T09:56:16;3.42;;;2.55;;
17251;SDS011;8742;51.716;8.790;2023-06-14T09:58:48;3.72;;;2.20;;
17251;SDS011;8742;51.716;8.790;2023-06-14T10:01:20;5.47;;;2.67;;
17251;SDS011;8742;51.716;8.790;2023-06-14T10:03:48;4.72;;;2.33;;
17251;SDS011;8742;51.716;8.790;2023-06-14T10:06:18;26.13;;;3.47;;
17251;SDS011;8742;51.716;8.790;2023-06-14T10:08:46;3.22;;;2.30;;
17251;SDS011;8742;51.716;8.790;2023-06-14T10:11:15;6.88;;;2.50;;
17251;SDS011;8742;51.716;8.790;2023-06-14T10:13:44;7.70;;;2.60;;
17251;SDS011;8742;51.716;8.790;2023-06-14T10:16:12;6.85;;;2.28;;
17251;SDS011;8742;51.716;8.790;2023-06-14T10:18:45;3.95;;;2.30;;
17251;SDS011;8742;51.716;8.790;2023-06-14T10:21:20;2.17;;;2.05;;
17251;SDS011;8742;51.716;8.790;2023-06-14T10:23:50;6.45;;;2.47;;
17251;SDS011;8742;51.716;8.790;2023-06-14T10:26:22;6.43;;;2.67;;
17251;SDS011;8742;51.716;8.790;2023-06-14T10:28:58;4.88;;;2.22;;
17251;SDS011;8742;51.716;8.790;2023-06-14T10:31:41;2.53;;;2.08;;
17251;SDS011;8742;51.716;8.790;2023-06-14T10:34:10;7.82;;;2.28;;
17251;SDS011;8742;51.716;8.790;2023-06-14T10:36:37;3.63;;;2.15;;
17251;SDS011;8742;51.716;8.790;2023-06-14T10:39:10;5.30;;;1.80;;
17251;SDS011;8742;51.716;8.790;2023-06-14T10:41:41;2.38;;;2.03;;
17251;SDS011;8742;51.716;8.790;2023-06-14T10:47:26;2.35;;;1.90;;
17251;SDS011;8742;51.716;8.790;2023-06-14T10:49:54;2.50;;;1.85;;
17251;SDS011;8742;51.716;8.790;2023-06-14T10:52:26;4.13;;;1.95;;
17251;SDS011;8742;51.716;8.790;2023-06-14T10:55:05;2.28;;;2.03;;
17251;SDS011;8742;51.716;8.790;2023-06-14T10:57:34;5.03;;;2.33;;
17251;SDS011;8742;51.716;8.790;2023-06-14T11:00:04;2.75;;;1.80;;
17251;SDS011;8742;51.716;8.790;2023-06-14T11:05:48;6.70;;;2.30;;
17251;SDS011;8742;51.716;8.790;2023-06-14T11:08:39;3.08;;;2.30;;
17251;SDS011;8742;51.716;8.790;2023-06-14T11:11:17;5.18;;;2.78;;
17251;SDS011;8742;51.716;8.790;2023-06-14T11:13:47;4.93;;;2.55;;
17251;SDS011;8742;51.716;8.790;2023-06-14T11:16:15;5.85;;;2.45;;
17251;SDS011;8742;51.716;8.790;2023-06-14T11:18:44;3.10;;;2.20;;
17251;SDS011;8742;51.716;8.790;2023-06-14T11:21:11;6.22;;;2.45;;
17251;SDS011;8742;51.716;8.790;2023-06-14T11:23:41;3.63;;;2.15;;
17251;SDS011;8742;51.716;8.790;2023-06-14T11:26:08;2.55;;;2.30;;
17251;SDS011;8742;51.716;8.790;2023-06-14T11:28:38;2.30;;;2.10;;
17251;SDS011;8742;51.716;8.790;2023-06-14T11:31:05;3.92;;;2.10;;
17251;SDS011;8742;51.716;8.790;2023-06-14T11:33:34;2.55;;;2.20;;
17251;SDS011;8742;51.716;8.790;2023-06-14T11:36:01;4.20;;;2.40;;
17251;SDS011;8742;51.716;8.790;2023-06-14T11:38:29;2.60;;;2.20;;
17251;SDS011;8742;51.716;8.790;2023-06-14T11:40:58;2.33;;;2.13;;
17251;SDS011;8742;51.716;8.790;2023-06-14T11:43:26;6.80;;;2.10;;
17251;SDS011;8742;51.716;8.790;2023-06-14T11:45:54;3.45;;;2.22;;
17251;SDS011;8742;51.716;8.790;2023-06-14T11:48:21;4.25;;;2.30;;
17251;SDS011;8742;51.716;8.790;2023-06-14T11:50:50;5.68;;;2.15;;
17251;SDS011;8742;51.716;8.790;2023-06-14T11:53:17;2.90;;;2.30;;
17251;SDS011;8742;51.716;8.790;2023-06-14T11:55:44;19.73;;;3.42;;
17251;SDS011;8742;51.716;8.790;2023-06-14T11:58:12;6.55;;;2.40;;
17251;SDS011;8742;51.716;8.790;2023-06-14T12:00:40;4.95;;;2.22;;
17251;SDS011;8742;51.716;8.790;2023-06-14T12:03:07;2.50;;;2.20;;
17251;SDS011;8742;51.716;8.790;2023-06-14T12:05:34;3.88;;;2.42;;
17251;SDS011;8742;51.716;8.790;2023-06-14T12:08:03;11.15;;;2.20;;
17251;SDS011;8742;51.716;8.790;2023-06-14T12:10:39;10.57;;;2.20;;
17251;SDS011;8742;51.716;8.790;2023-06-14T12:13:08;5.07;;;2.25;;
17251;SDS011;8742;51.716;8.790;2023-06-14T12:15:35;5.90;;;2.30;;
17251;SDS011;8742;51.716;8.790;2023-06-14T12:18:04;6.90;;;2.38;;
17251;SDS011;8742;51.716;8.790;2023-06-14T12:20:33;19.25;;;3.38;;
17251;SDS011;8742;51.716;8.790;2023-06-14T12:23:03;8.13;;;2.70;;
17251;SDS011;8742;51.716;8.790;2023-06-14T12:25:31;2.35;;;1.77;;
17251;SDS011;8742;51.716;8.790;2023-06-14T12:28:04;2.55;;;2.30;;
17251;SDS011;8742;51.716;8.790;2023-06-14T12:30:32;8.35;;;2.35;;
17251;SDS011;8742;51.716;8.790;2023-06-14T12:32:59;4.38;;;2.10;;
17251;SDS011;8742;51.716;8.790;2023-06-14T12:35:27;3.03;;;2.38;;
17251;SDS011;8742;51.716;8.790;2023-06-14T12:37:54;5.97;;;2.38;;
17251;SDS011;8742;51.716;8.790;2023-06-14T12:40:22;6.68;;;2.20;;
17251;SDS011;8742;51.716;8.790;2023-06-14T12:42:49;3.35;;;1.95;;
17251;SDS011;8742;51.716;8.790;2023-06-14T12:45:16;3.50;;;1.88;;
17251;SDS011;8742;51.716;8.790;2023-06-14T12:47:43;3.13;;;2.42;;
17251;SDS011;8742;51.716;8.790;2023-06-14T12:50:10;5.13;;;2.22;;
17251;SDS011;8742;51.716;8.790;2023-06-14T12:52:37;4.20;;;2.08;;
17251;SDS011;8742;51.716;8.790;2023-06-14T12:55:04;2.65;;;2.05;;
17251;SDS011;8742;51.716;8.790;2023-06-14T12:57:33;7.75;;;2.58;;
17251;SDS011;8742;51.716;8.790;2023-06-14T13:00:02;9.15;;;2.25;;
17251;SDS011;8742;51.716;8.790;2023-06-14T13:02:29;4.55;;;1.90;;
17251;SDS011;8742;51.716;8.790;2023-06-14T13:04:56;8.93;;;2.30;;
17251;SDS011;8742;51.716;8.790;2023-06-14T13:07:23;4.13;;;2.08;;
17251;SDS011;8742;51.716;8.790;2023-06-14T13:09:50;4.65;;;2.10;;
17251;SDS011;8742;51.716;8.790;2023-06-14T13:12:17;5.82;;;2.00;;
17251;SDS011;8742;51.716;8.790;2023-06-14T13:14:46;2.00;;;1.80;;
17251;SDS011;8742;51.716;8.790;2023-06-14T13:17:13;2.40;;;1.65;;
17251;SDS011;8742;51.716;8.790;2023-06-14T13:19:39;3.38;;;1.80;;
17251;SDS011;8742;51.716;8.790;2023-06-14T13:22:07;2.15;;;1.98;;
17251;SDS011;8742;51.716;8.790;2023-06-14T13:24:34;2.17;;;2.08;;
17251;SDS011;8742;51.716;8.790;2023-06-14T13:27:01;3.13;;;2.00;;
17251;SDS011;8742;51.716;8.790;2023-06-14T13:29:28;3.80;;;2.08;;
17251;SDS011;8742;51.716;8.790;2023-06-14T13:31:57;5.47;;;1.88;;
17251;SDS011;8742;51.716;8.790;2023-06-14T13:34:24;4.90;;;1.95;;
17251;SDS011;8742;51.716;8.790;2023-06-14T13:36:51;4.65;;;2.00;;
17251;SDS011;8742;51.716;8.790;2023-06-14T13:39:18;3.58;;;2.17;;
17251;SDS011;8742;51.716;8.790;2023-06-14T13:41:45;2.70;;;2.13;;
17251;SDS011;8742;51.716;8.790;2023-06-14T13:44:12;1.90;;;1.80;;
17251;SDS011;8742;51.716;8.790;2023-06-14T13:46:41;4.55;;;2.30;;
17251;SDS011;8742;51.716;8.790;2023-06-14T13:49:10;3.92;;;2.10;;
17251;SDS011;8742;51.716;8.790;2023-06-14T13:51:37;5.32;;;1.90;;
17251;SDS011;8742;51.716;8.790;2023-06-14T13:54:04;3.63;;;1.83;;
17251;SDS011;8742;51.716;8.790;2023-06-14T13:56:31;2.83;;;1.80;;
17251;SDS011;8742;51.716;8.790;2023-06-14T13:58:58;1.98;;;1.60;;
17251;SDS011;8742;51.716;8.790;2023-06-14T14:01:25;2.50;;;1.80;;
17251;SDS011;8742;51.716;8.790;2023-06-14T14:03:53;1.60;;;1.50;;
17251;SDS011;8742;51.716;8.790;2023-06-14T14:06:22;2.30;;;1.83;;
17251;SDS011;8742;51.716;8.790;2023-06-14T14:08:48;2.42;;;1.92;;
17251;SDS011;8742;51.716;8.790;2023-06-14T14:11:15;2.22;;;1.73;;
17251;SDS011;8742;51.716;8.790;2023-06-14T14:13:43;2.17;;;1.80;;
17251;SDS011;8742;51.716;8.790;2023-06-14T14:16:10;1.80;;;1.45;;
17251;SDS011;8742;51.716;8.790;2023-06-14T14:18:36;3.00;;;1.77;;
17251;SDS011;8742;51.716;8.790;2023-06-14T14:21:03;1.98;;;1.60;;
17251;SDS011;8742;51.716;8.790;2023-06-14T14:23:32;4.32;;;1.98;;
17251;SDS011;8742;51.716;8.790;2023-06-14T14:25:58;2.08;;;1.60;;
17251;SDS011;8742;51.716;8.790;2023-06-14T14:28:28;1.67;;;1.50;;
17251;SDS011;8742;51.716;8.790;2023-06-14T14:30:55;2.10;;;1.63;;
17251;SDS011;8742;51.716;8.790;2023-06-14T14:33:22;1.33;;;1.23;;
17251;SDS011;8742;51.716;8.790;2023-06-14T14:35:49;1.70;;;1.60;;
17251;SDS011;8742;51.716;8.790;2023-06-14T14:38:16;2.33;;;1.70;;
17251;SDS011;8742;51.716;8.790;2023-06-14T14:40:44;1.73;;;1.60;;
17251;SDS011;8742;51.716;8.790;2023-06-14T14:43:11;4.78;;;1.80;;
17251;SDS011;8742;51.716;8.790;2023-06-14T14:45:38;2.17;;;1.90;;
17251;SDS011;8742;51.716;8.790;2023-06-14T14:48:05;6.70;;;1.60;;
17251;SDS011;8742;51.716;8.790;2023-06-14T14:50:32;1.90;;;1.50;;
17251;SDS011;8742;51.716;8.790;2023-06-14T14:52:59;2.40;;;1.70;;
17251;SDS011;8742;51.716;8.790;2023-06-14T14:55:26;3.25;;;1.85;;
17251;SDS011;8742;51.716;8.790;2023-06-14T14:57:54;1.65;;;1.55;;
17251;SDS011;8742;51.716;8.790;2023-06-14T15:00:21;2.90;;;1.77;;
17251;SDS011;8742;51.716;8.790;2023-06-14T15:02:47;2.45;;;1.77;;
17251;SDS011;8742;51.716;8.790;2023-06-14T15:05:14;5.18;;;1.80;;
17251;SDS011;8742;51.716;8.790;2023-06-14T15:07:41;4.80;;;1.80;;
17251;SDS011;8742;51.716;8.790;2023-06-14T15:10:09;2.13;;;1.70;;
17251;SDS011;8742;51.716;8.790;2023-06-14T15:12:36;3.05;;;1.80;;